Time;durP1;ratioP1;P1;durP2;ratioP2;P2;SDS_P1;SDS_P2;PMS_P1;PMS_P2;Temp;Humidity;BMP_temperature;BMP_pressure;BME280_temperature;BME280_humidity;BME280_pressure;Samples;Min_cycle;Max_cycle;Signal;HPM_P1;HPM_P2
2022/01/02 00:00:46;;;;;;;4.82;3.63;;;;;;;0.29;100.00;93696.25;2105813;28;20120;-82
2022/01/02 00:01:47;;;;;;;4.57;3.97;;;;;;;0.23;100.00;93695.75;2119091;27;20042;-84
2022/01/02 00:02:50;;;;;;;7.40;4.07;;;;;;;0.15;100.00;93699.28;2110783;27;20046;-83
2022/01/02 00:03:52;;;;;;;5.50;3.85;;;;;;;0.19;100.00;93689.63;2107169;27;20070;-82
2022/01/02 00:05:02;;;;;;;4.10;3.70;;;;;;;0.13;100.00;93685.72;2110956;27;20110;-83
2022/01/02 00:06:03;;;;;;;3.90;3.58;;;;;;;0.14;100.00;93694.38;2111188;28;20019;-82
2022/01/02 00:07:08;;;;;;;3.92;3.53;;;;;;;0.18;100.00;93692.59;2102655;28;20020;-82
2022/01/02 00:08:11;;;;;;;3.63;3.33;;;;;;;0.16;100.00;93700.81;2112024;27;20583;-82
2022/01/02 00:09:23;;;;;;;4.53;4.00;;;;;;;0.10;100.00;93689.00;2111526;27;20027;-82
2022/01/02 00:10:26;;;;;;;6.00;4.35;;;;;;;0.05;100.00;93688.50;2111435;27;20599;-84
2022/01/02 00:11:27;;;;;;;5.55;4.18;;;;;;;0.09;100.00;93684.88;2108299;28;20043;-83
2022/01/02 00:12:33;;;;;;;5.40;4.22;;;;;;;0.11;100.00;93680.03;2100441;28;20217;-83
2022/01/02 00:13:38;;;;;;;5.85;3.78;;;;;;;0.11;100.00;93687.91;2093264;28;20090;-83
2022/01/02 00:14:48;;;;;;;6.78;4.00;;;;;;;0.07;100.00;93683.66;2094171;28;20029;-82
2022/01/02 00:16:03;;;;;;;3.55;3.25;;;;;;;0.11;100.00;93687.91;2104193;28;20024;-83
2022/01/02 00:17:07;;;;;;;4.47;3.85;;;;;;;0.04;100.00;93685.06;2111243;27;20035;-83
2022/01/02 00:18:12;;;;;;;4.40;3.83;;;;;;;0.06;100.00;93687.38;2102934;28;20092;-83
2022/01/02 00:19:28;;;;;;;4.40;3.97;;;;;;;0.07;100.00;93686.28;2111676;27;20113;-84
2022/01/02 00:20:33;;;;;;;4.78;3.67;;;;;;;0.07;100.00;93686.28;2116692;27;20416;-82
2022/01/02 00:21:44;;;;;;;4.57;4.10;;;;;;;0.05;100.00;93686.63;2111181;28;20039;-81
2022/01/02 00:22:51;;;;;;;5.07;4.57;;;;;;;0.08;100.00;93687.81;2102165;28;20450;-83
2022/01/02 00:24:02;;;;;;;7.53;4.07;;;;;;;0.03;100.00;93686.19;2096784;27;20036;-82
2022/01/02 00:25:22;;;;;;;4.90;3.70;;;;;;;0.06;100.00;93684.75;2107955;27;20531;-83
2022/01/02 00:26:34;;;;;;;6.43;4.10;;;;;;;0.04;100.00;93684.31;2116156;27;20566;-82
2022/01/02 00:27:36;;;;;;;5.68;3.38;;;;;;;0.02;100.00;93687.28;2119055;27;20317;-83
2022/01/02 00:28:39;;;;;;;4.53;3.42;;;;;;;-0.02;100.00;93684.56;2111059;28;20595;-84
2022/01/02 00:29:42;;;;;;;6.38;4.10;;;;;;;-0.08;100.00;93690.41;2102324;28;20114;-82
2022/01/02 00:30:44;;;;;;;5.97;4.35;;;;;;;-0.11;100.00;93685.81;2089735;28;20086;-83
2022/01/02 00:31:47;;;;;;;4.28;3.75;;;;;;;-0.09;100.00;93673.88;2094843;28;20066;-84
2022/01/02 00:32:48;;;;;;;4.40;3.83;;;;;;;-0.22;100.00;93680.28;2111251;28;20030;-83
2022/01/02 00:33:49;;;;;;;3.30;3.00;;;;;;;-0.19;100.00;93674.34;2120944;27;20023;-81
2022/01/02 00:34:54;;;;;;;4.00;3.60;;;;;;;-0.19;100.00;93678.81;2106811;28;20027;-83
2022/01/02 00:35:55;;;;;;;4.32;3.58;;;;;;;-0.18;100.00;93675.09;2112313;27;20023;-84
2022/01/02 00:36:56;;;;;;;4.32;3.70;;;;;;;-0.23;100.00;93678.72;2120377;27;20023;-82
2022/01/02 00:37:56;;;;;;;3.45;3.15;;;;;;;-0.24;100.00;93679.81;2119645;27;20050;-83
2022/01/02 00:38:57;;;;;;;3.95;3.22;;;;;;;-0.26;100.00;93674.16;2115591;27;20364;-84
2022/01/02 00:39:58;;;;;;;4.50;4.10;;;;;;;-0.32;100.00;93683.34;2111065;28;20417;-83
2022/01/02 00:41:06;;;;;;;4.47;3.60;;;;;;;-0.27;100.00;93672.59;2102758;28;20048;-82
2022/01/02 00:42:18;;;;;;;5.28;3.75;;;;;;;-0.28;100.00;93676.31;2103878;28;20496;-85
2022/01/02 00:43:34;;;;;;;4.22;3.67;;;;;;;-0.28;100.00;93686.84;2096677;28;20025;-84
2022/01/02 00:44:59;;;;;;;4.07;3.70;;;;;;;-0.27;100.00;93677.84;2092487;28;20117;-83
2022/01/02 00:46:10;;;;;;;5.47;3.55;;;;;;;-0.28;100.00;93677.09;2103594;28;20019;-82
2022/01/02 00:47:42;;;;;;;4.88;3.83;;;;;;;-0.30;100.00;93681.16;2105244;27;20221;-84
2022/01/02 00:48:46;;;;;;;6.05;3.90;;;;;;;-0.27;100.00;93683.09;2114121;27;20068;-84
2022/01/02 00:50:00;;;;;;;6.80;3.40;;;;;;;-0.24;100.00;93682.44;2110421;28;20051;-83
2022/01/02 00:51:30;;;;;;;4.40;3.35;;;;;;;-0.23;100.00;93686.59;2108210;28;20027;-82
2022/01/02 00:52:43;;;;;;;5.35;3.88;;;;;;;-0.26;100.00;93682.78;2102440;28;20436;-84
2022/01/02 00:53:47;;;;;;;5.88;3.50;;;;;;;-0.22;100.00;93682.91;2105913;27;20058;-83
2022/01/02 00:54:51;;;;;;;4.75;3.33;;;;;;;-0.21;100.00;93681.78;2111777;27;20033;-83
2022/01/02 00:56:00;;;;;;;4.15;3.72;;;;;;;-0.21;100.00;93668.66;2107251;27;20027;-83
2022/01/02 00:57:08;;;;;;;3.22;2.92;;;;;;;-0.23;100.00;93673.47;2103802;28;20227;-82
2022/01/02 00:58:13;;;;;;;4.10;3.42;;;;;;;-0.25;100.00;93670.41;2103088;27;20024;-83
2022/01/02 00:59:29;;;;;;;3.40;3.10;;;;;;;-0.22;100.00;93671.59;2111778;27;20026;-84
2022/01/02 01:00:31;;;;;;;3.38;3.08;;;;;;;-0.31;100.00;93667.28;2117703;27;20030;-84
2022/01/02 01:01:39;;;;;;;3.90;3.55;;;;;;;-0.29;100.00;93672.94;2112971;28;20020;-82
2022/01/02 01:02:46;;;;;;;4.82;3.70;;;;;;;-0.30;100.00;93668.03;2113909;27;20023;-81
2022/01/02 01:03:53;;;;;;;3.38;3.00;;;;;;;-0.21;100.00;93662.63;2121248;27;20030;-83
2022/01/02 01:04:56;;;;;;;3.67;3.25;;;;;;;-0.23;100.00;93662.19;2105386;28;20028;-83
2022/01/02 01:06:02;;;;;;;3.28;2.70;;;;;;;-0.24;100.00;93664.06;2101171;28;20035;-81
2022/01/02 01:07:05;;;;;;;3.40;3.05;;;;;;;-0.26;100.00;93663.66;2105926;27;20030;-83
2022/01/02 01:08:08;;;;;;;4.10;3.25;;;;;;;-0.27;100.00;93668.09;2104988;28;20097;-83
2022/01/02 01:09:09;;;;;;;3.67;3.05;;;;;;;-0.27;100.00;93664.72;2096946;28;20024;-83
2022/01/02 01:10:11;;;;;;;5.03;2.78;;;;;;;-0.31;100.00;93658.59;2096718;28;20529;-83
2022/01/02 01:11:13;;;;;;;3.88;3.25;;;;;;;-0.35;100.00;93663.78;2096354;28;20127;-84
2022/01/02 01:12:16;;;;;;;3.08;2.78;;;;;;;-0.32;100.00;93664.97;2096496;28;20115;-81
2022/01/02 01:13:18;;;;;;;3.28;2.97;;;;;;;-0.29;100.00;93666.94;2096276;28;20035;-83
2022/01/02 01:14:19;;;;;;;2.70;2.40;;;;;;;-0.24;100.00;93665.94;2104386;28;20028;-83
2022/01/02 01:15:22;;;;;;;3.38;2.90;;;;;;;-0.38;100.00;93666.31;2112921;28;20473;-83
2022/01/02 01:16:23;;;;;;;4.43;2.80;;;;;;;-0.42;100.00;93660.94;2104711;28;20063;-82
2022/01/02 01:17:25;;;;;;;3.70;2.78;;;;;;;-0.50;100.00;93664.47;2096287;28;20028;-83
2022/01/02 01:18:26;;;;;;;4.60;2.70;;;;;;;-0.45;100.00;93658.97;2096573;28;20511;-81
2022/01/02 01:19:27;;;;;;;3.67;2.88;;;;;;;-0.47;100.00;93655.16;2101375;28;20062;-82
2022/01/02 01:20:37;;;;;;;3.10;2.80;;;;;;;-0.55;100.00;93651.56;2104812;28;20457;-85
2022/01/02 01:21:38;;;;;;;4.13;2.85;;;;;;;-0.51;100.00;93650.56;2105885;28;20077;-82
2022/01/02 01:22:39;;;;;;;3.35;2.92;;;;;;;-0.57;100.00;93649.28;2108938;28;20076;-84
2022/01/02 01:23:41;;;;;;;3.97;2.47;;;;;;;-0.58;100.00;93652.22;2104486;28;20451;-84
2022/01/02 01:24:42;;;;;;;3.65;2.58;;;;;;;-0.63;100.00;93644.56;2104662;28;20488;-84
2022/01/02 01:25:46;;;;;;;2.60;2.40;;;;;;;-0.59;100.00;93648.84;2104413;28;20107;-83
2022/01/02 01:26:50;;;;;;;2.90;2.53;;;;;;;-0.61;100.00;93640.53;2104677;27;20024;-83
2022/01/02 01:27:53;;;;;;;3.13;2.83;;;;;;;-0.61;100.00;93645.78;2102323;28;20035;-83
2022/01/02 01:28:54;;;;;;;3.25;2.92;;;;;;;-0.60;100.00;93642.06;2113272;27;20432;-82
2022/01/02 01:29:55;;;;;;;3.03;1.98;;;;;;;-0.69;100.00;93644.06;2121496;27;20023;-84
2022/01/02 01:31:00;;;;;;;2.30;2.10;;;;;;;-0.67;100.00;93643.72;2104549;28;20023;-84
2022/01/02 01:32:02;;;;;;;2.65;2.45;;;;;;;-0.67;100.00;93648.97;2104950;28;20533;-83
2022/01/02 01:33:03;;;;;;;3.08;2.42;;;;;;;-0.70;100.00;93647.78;2096507;28;20012;-83
2022/01/02 01:34:07;;;;;;;2.72;2.45;;;;;;;-0.73;100.00;93640.56;2104749;28;20028;-83
2022/01/02 01:35:10;;;;;;;3.05;2.58;;;;;;;-0.74;100.00;93643.53;2104913;28;20050;-84
2022/01/02 01:36:11;;;;;;;2.72;2.35;;;;;;;-0.72;100.00;93649.19;2104826;28;20394;-82
2022/01/02 01:37:12;;;;;;;2.95;2.08;;;;;;;-0.66;100.00;93643.41;2099134;28;20036;-85
2022/01/02 01:38:13;;;;;;;3.22;2.45;;;;;;;-0.71;100.00;93648.09;2096245;28;20082;-82
2022/01/02 01:39:14;;;;;;;3.80;2.08;;;;;;;-0.72;100.00;93655.19;2112977;28;20036;-84
2022/01/02 01:40:17;;;;;;;2.40;2.20;;;;;;;-0.62;100.00;93651.34;2121531;27;20030;-83
2022/01/02 01:41:27;;;;;;;5.22;2.33;;;;;;;-0.72;100.00;93647.34;2109217;28;20032;-83
2022/01/02 01:42:43;;;;;;;2.08;1.90;;;;;;;-0.77;100.00;93658.06;2111310;28;20391;-83
2022/01/02 01:43:53;;;;;;;2.67;2.30;;;;;;;-0.77;100.00;93647.56;2112621;28;20024;-83
2022/01/02 01:45:28;;;;;;;2.58;2.20;;;;;;;-0.85;100.00;93659.69;2110018;27;20023;-85
2022/01/02 01:46:15;;;;;;;2.58;2.17;;;;;;;-0.89;100.00;93644.94;2115468;27;20342;-83
2022/01/02 01:47:17;;;;;;;4.22;2.55;;;;;;;-0.94;100.00;93642.56;2112736;28;20480;-83
2022/01/02 01:48:20;;;;;;;2.38;2.03;;;;;;;-0.93;100.00;93649.31;2112775;28;20538;-83
2022/01/02 01:49:31;;;;;;;2.05;1.85;;;;;;;-0.91;100.00;93649.78;2113041;28;20498;-85
2022/01/02 01:50:35;;;;;;;;;;;;;;;-0.84;100.00;93652.59;2121973;27;20053;-83
2022/01/02 01:51:38;;;;;;;3.70;2.03;;;;;;;-0.86;100.00;93642.44;2113102;28;19984;-82
2022/01/02 01:52:44;;;;;;;2.38;2.08;;;;;;;-0.86;100.00;93645.06;2096729;28;20024;-84
2022/01/02 01:53:50;;;;;;;3.20;2.30;;;;;;;-0.95;100.00;93639.16;2105807;27;20061;-82
2022/01/02 01:54:55;;;;;;;3.03;2.45;;;;;;;-0.93;100.00;93639.59;2105138;28;20024;-82
2022/01/02 01:56:00;;;;;;;2.80;2.50;;;;;;;-1.01;100.00;93645.72;2113041;27;20106;-84
2022/01/02 01:57:04;;;;;;;3.38;2.90;;;;;;;-1.00;100.00;93639.41;2112769;28;20052;-84
2022/01/02 01:58:06;;;;;;;3.55;3.03;;;;;;;-1.05;100.00;93647.50;2104787;28;20024;-83
2022/01/02 01:59:07;;;;;;;3.47;2.95;;;;;;;-1.03;100.00;93646.06;2113092;27;20016;-85
2022/01/02 02:00:15;;;;;;;3.47;2.80;;;;;;;-1.02;100.00;93646.81;2121207;27;20019;-83
2022/01/02 02:01:17;;;;;;;3.40;3.10;;;;;;;-1.03;100.00;93640.03;2113439;28;20032;-82
2022/01/02 02:02:19;;;;;;;4.53;3.28;;;;;;;-1.07;100.00;93639.16;2104622;28;20496;-85
2022/01/02 02:03:20;;;;;;;3.28;2.97;;;;;;;-1.04;100.00;93646.41;2104517;27;20028;-83
2022/01/02 02:04:21;;;;;;;4.07;3.35;;;;;;;-1.09;100.00;93639.50;2112709;28;20035;-83
2022/01/02 02:05:23;;;;;;;5.20;3.90;;;;;;;-1.03;100.00;93640.81;2104179;28;20024;-84
2022/01/02 02:06:26;;;;;;;4.18;3.78;;;;;;;-1.00;100.00;93634.16;2121310;28;20140;-84
2022/01/02 02:07:37;;;;;;;4.30;3.90;;;;;;;-0.95;100.00;93630.53;2112692;28;20023;-84
2022/01/02 02:10:14;;;;;;;4.72;4.05;;;;;;;-1.04;100.00;93626.16;2129486;27;20183;-86
2022/01/02 02:11:16;;;;;;;4.20;3.60;;;;;;;-1.04;100.00;93628.78;2115028;28;20127;-84
2022/01/02 02:12:17;;;;;;;5.72;4.38;;;;;;;-1.07;100.00;93623.44;2100006;28;20059;-84
2022/01/02 02:13:18;;;;;;;4.13;3.72;;;;;;;-1.10;100.00;93619.63;2103296;28;20032;-84
2022/01/02 02:14:22;;;;;;;4.70;4.25;;;;;;;-1.07;100.00;93620.81;2115889;28;20115;-83
2022/01/02 02:15:26;;;;;;;4.80;4.38;;;;;;;-1.11;100.00;93619.94;2107947;28;20035;-85
2022/01/02 02:16:30;;;;;;;4.63;4.18;;;;;;;-1.13;100.00;93625.53;2107420;28;20040;-84
2022/01/02 02:17:35;;;;;;;4.45;3.85;;;;;;;-1.10;100.00;93627.50;2091566;28;20040;-84
2022/01/02 02:18:37;;;;;;;6.25;4.30;;;;;;;-1.13;100.00;93622.91;2104268;28;20048;-84
2022/01/02 02:19:38;;;;;;;4.72;4.22;;;;;;;-1.10;100.00;93621.47;2105042;28;20131;-84
2022/01/02 02:20:39;;;;;;;4.70;3.85;;;;;;;-1.09;100.00;93618.53;2107078;28;20134;-85
2022/01/02 02:21:40;;;;;;;4.18;3.65;;;;;;;-1.03;100.00;93613.81;2110211;28;20149;-84
2022/01/02 02:22:45;;;;;;;5.03;4.07;;;;;;;-1.03;100.00;93619.81;2108402;28;20036;-86
2022/01/02 02:23:46;;;;;;;4.78;3.67;;;;;;;-0.85;100.00;93619.56;2104106;28;20453;-85
2022/01/02 02:24:47;;;;;;;4.78;3.63;;;;;;;-0.80;100.00;93619.34;2111604;28;20046;-84
2022/01/02 02:25:48;;;;;;;3.60;3.25;;;;;;;-0.80;100.00;93612.25;2111382;28;20023;-86
2022/01/02 02:26:54;;;;;;;4.07;3.58;;;;;;;-0.78;100.00;93615.31;2111439;28;20024;-86
2022/01/02 02:28:04;;;;;;;5.90;4.20;;;;;;;-0.77;100.00;93603.72;2099392;28;20083;-84
2022/01/02 02:29:06;;;;;;;4.20;3.53;;;;;;;-0.76;100.00;93614.97;2101284;28;20139;-85
2022/01/02 02:30:12;;;;;;;4.47;3.33;;;;;;;-0.79;100.00;93611.16;2109166;28;20089;-85
2022/01/02 02:31:13;;;;;;;4.13;3.40;;;;;;;-0.74;100.00;93617.28;2103745;28;20036;-83
2022/01/02 02:32:15;;;;;;;4.10;3.70;;;;;;;-0.76;100.00;93607.84;2110301;28;20031;-84
2022/01/02 02:33:17;;;;;;;5.65;3.78;;;;;;;-0.77;100.00;93603.72;2103656;28;20398;-84
2022/01/02 02:34:18;;;;;;;4.05;3.42;;;;;;;-0.72;100.00;93604.56;2107542;28;20040;-82
2022/01/02 02:35:19;;;;;;;4.78;3.70;;;;;;;-0.67;100.00;93601.72;2115605;28;20401;-84
2022/01/02 02:36:20;;;;;;;6.07;3.08;;;;;;;-0.69;100.00;93602.06;2103048;28;20036;-85
2022/01/02 02:37:21;;;;;;;4.65;3.33;;;;;;;-0.81;100.00;93602.84;2107279;28;20123;-84
2022/01/02 02:38:22;;;;;;;6.22;3.60;;;;;;;-0.76;100.00;93596.59;2115480;28;20115;-83
2022/01/02 02:39:26;;;;;;;4.43;3.40;;;;;;;-0.81;100.00;93602.09;2106916;28;20074;-85
2022/01/02 02:40:30;;;;;;;4.65;3.95;;;;;;;-0.84;100.00;93595.63;2107595;28;20055;-84
2022/01/02 02:41:34;;;;;;;5.15;3.70;;;;;;;-0.82;100.00;93596.06;2100647;28;20028;-83
2022/01/02 02:42:49;;;;;;;3.88;3.47;;;;;;;-0.83;100.00;93599.78;2097341;28;20127;-85
2022/01/02 02:43:59;;;;;;;4.00;3.38;;;;;;;-0.87;100.00;93591.06;2113487;28;20059;-84
2022/01/02 02:49:14;;;;;;;3.13;2.80;;;;;;;-0.83;100.00;93591.16;2108692;28;20065;-83
2022/01/02 02:50:15;;;;;;;5.75;3.85;;;;;;;-0.89;100.00;93590.59;2107069;28;20024;-84
2022/01/02 02:51:26;;;;;;;5.32;3.55;;;;;;;-0.92;100.00;93583.41;2107908;28;20032;-84
2022/01/02 02:52:39;;;;;;;4.45;3.35;;;;;;;-0.92;100.00;93586.03;2116542;28;20031;-84
2022/01/02 02:53:44;;;;;;;4.40;3.20;;;;;;;-0.94;100.00;93582.97;2107109;28;20740;-85
2022/01/02 02:54:47;;;;;;;3.40;3.10;;;;;;;-0.88;100.00;93580.88;2108631;28;20497;-85
2022/01/02 02:55:54;;;;;;;3.20;2.85;;;;;;;-0.83;100.00;93581.44;2120036;28;20031;-84
2022/01/02 02:56:57;;;;;;;5.28;3.80;;;;;;;-0.82;100.00;93575.06;2119935;28;20110;-84
2022/01/02 02:58:09;;;;;;;4.72;3.58;;;;;;;-0.81;100.00;93576.59;2110653;28;20080;-86
2022/01/02 02:59:17;;;;;;;4.78;2.70;;;;;;;-0.79;100.00;93568.38;2106943;28;20028;-84
2022/01/02 03:00:24;;;;;;;3.85;3.45;;;;;;;-0.76;100.00;93572.97;2107685;28;20043;-85
2022/01/02 03:01:32;;;;;;;3.45;3.10;;;;;;;-0.80;100.00;93575.50;2104067;28;20565;-82
2022/01/02 03:02:43;;;;;;;5.53;3.40;;;;;;;-0.72;100.00;93578.31;2102267;28;20025;-83
2022/01/02 03:03:52;;;;;;;4.38;3.17;;;;;;;-0.78;100.00;93572.56;2108479;28;20024;-84
2022/01/02 03:05:01;;;;;;;4.53;3.35;;;;;;;-0.82;100.00;93574.31;2107043;28;20016;-83
2022/01/02 03:06:08;;;;;;;4.05;3.30;;;;;;;-0.88;100.00;93575.63;2102243;28;20111;-82
2022/01/02 03:07:15;;;;;;;3.90;3.20;;;;;;;-0.85;100.00;93570.47;2113243;28;20491;-85
2022/01/02 03:08:19;;;;;;;4.00;3.10;;;;;;;-0.68;100.00;93577.34;2106883;28;20028;-84
2022/01/02 03:09:39;;;;;;;4.97;3.30;;;;;;;-0.72;100.00;93573.09;2098727;28;20035;-85
2022/01/02 03:10:42;;;;;;;;;;;;;;;-0.75;100.00;93564.00;2107638;28;20516;-85
2022/01/02 03:11:46;;;;;;;5.65;3.05;;;;;;;-0.72;100.00;93567.84;2090886;28;20382;-85
2022/01/02 03:12:52;;;;;;;4.40;2.95;;;;;;;-0.42;100.00;93568.28;2087156;28;20446;-86
2022/01/02 03:13:54;;;;;;;4.32;3.05;;;;;;;-0.54;100.00;93569.06;2091790;28;20024;-85
2022/01/02 03:15:01;;;;;;;3.90;3.05;;;;;;;-0.58;100.00;93561.09;2107232;28;20491;-84
2022/01/02 03:16:06;;;;;;;4.85;2.95;;;;;;;-0.60;100.00;93573.03;2107250;28;20024;-83
2022/01/02 03:17:10;;;;;;;6.93;2.88;;;;;;;-0.46;100.00;93562.94;2101274;28;20021;-84
2022/01/02 03:18:11;;;;;;;2.97;2.67;;;;;;;-0.58;100.00;93552.47;2103813;28;20383;-84
2022/01/02 03:19:13;;;;;;;3.72;2.78;;;;;;;-0.62;100.00;93560.22;2106848;28;20370;-85
2022/01/02 03:20:20;;;;;;;4.28;2.70;;;;;;;-0.61;100.00;93555.78;2100327;28;20524;-86
2022/01/02 03:21:22;;;;;;;3.15;2.70;;;;;;;-0.49;100.00;93554.94;2093651;28;20025;-84
2022/01/02 03:22:24;;;;;;;2.92;2.63;;;;;;;-0.33;100.00;93563.63;2093235;28;20025;-85
2022/01/02 03:23:27;;;;;;;4.78;2.65;;;;;;;-0.38;100.00;93550.75;2088878;28;20053;-85
2022/01/02 03:24:28;;;;;;;2.70;2.50;;;;;;;-0.46;100.00;93554.28;2093616;28;20516;-86
2022/01/02 03:25:29;;;;;;;3.63;2.60;;;;;;;-0.35;100.00;93555.31;2101754;28;20430;-83
2022/01/02 03:26:30;;;;;;;6.93;2.42;;;;;;;-0.41;100.00;93554.03;2112663;28;20031;-83
2022/01/02 03:27:32;;;;;;;3.25;2.90;;;;;;;-0.55;100.00;93557.81;2108855;28;20027;-83
2022/01/02 03:28:33;;;;;;;2.72;2.53;;;;;;;-0.45;100.00;93558.44;2095614;28;20077;-83
2022/01/02 03:29:37;;;;;;;3.42;2.83;;;;;;;-0.55;100.00;93544.69;2086625;28;20033;-84
2022/01/02 03:30:39;;;;;;;2.92;2.63;;;;;;;-0.60;100.00;93550.19;2087431;28;20032;-85
2022/01/02 03:31:44;;;;;;;2.75;2.45;;;;;;;-0.66;100.00;93554.16;2101651;28;20020;-83
2022/01/02 03:32:45;;;;;;;2.75;2.55;;;;;;;-0.65;100.00;93550.44;2101775;28;20515;-85
2022/01/02 03:33:46;;;;;;;2.78;2.20;;;;;;;-0.67;100.00;93539.47;2113004;28;20028;-84
2022/01/02 03:34:47;;;;;;;3.03;2.50;;;;;;;-0.71;100.00;93543.88;2110356;28;20464;-84
2022/01/02 03:35:48;;;;;;;2.70;2.45;;;;;;;-0.70;100.00;93534.91;2101279;28;20488;-85
2022/01/02 03:36:49;;;;;;;2.80;2.38;;;;;;;-0.70;100.00;93540.16;2101122;28;20085;-84
2022/01/02 03:37:51;;;;;;;2.78;2.20;;;;;;;-0.66;100.00;93538.41;2101304;28;20512;-85
2022/01/02 03:38:52;;;;;;;3.05;2.67;;;;;;;-0.60;100.00;93538.91;2093084;28;20063;-84
2022/01/02 03:39:53;;;;;;;4.03;2.25;;;;;;;-0.63;100.00;93532.47;2105443;28;20016;-86
2022/01/02 03:40:54;;;;;;;4.30;2.70;;;;;;;-0.64;100.00;93532.81;2097405;28;20081;-85
2022/01/02 03:41:56;;;;;;;3.90;2.40;;;;;;;-0.71;100.00;93536.00;2085257;28;20025;-85
2022/01/02 03:42:57;;;;;;;2.72;2.28;;;;;;;-0.58;100.00;93536.72;2097296;28;20028;-85
2022/01/02 03:43:59;;;;;;;3.88;2.33;;;;;;;-0.56;100.00;93529.28;2104347;28;20031;-85
2022/01/02 03:45:01;;;;;;;4.60;2.08;;;;;;;-0.54;100.00;93532.31;2110958;28;20015;-84
2022/01/02 03:46:02;;;;;;;2.70;2.15;;;;;;;-0.58;100.00;93523.59;2110377;28;20103;-84
2022/01/02 03:47:04;;;;;;;2.50;1.92;;;;;;;-0.53;100.00;93520.72;2108001;28;20028;-83
2022/01/02 03:48:05;;;;;;;2.35;2.03;;;;;;;-0.54;100.00;93519.19;2092793;28;20839;-85
2022/01/02 03:49:06;;;;;;;2.42;2.05;;;;;;;-0.49;100.00;93520.81;2082586;28;20029;-85
2022/01/02 03:50:07;;;;;;;4.88;2.20;;;;;;;-0.58;100.00;93523.59;2099459;28;20089;-84
2022/01/02 03:51:10;;;;;;;3.25;2.05;;;;;;;-0.61;100.00;93521.66;2109706;28;20043;-84
2022/01/02 03:52:13;;;;;;;2.80;2.35;;;;;;;-0.60;100.00;93518.69;2100153;28;20028;-84
2022/01/02 03:53:15;;;;;;;2.45;1.98;;;;;;;-0.53;100.00;93520.72;2097458;28;20021;-83
2022/01/02 03:54:16;;;;;;;2.45;1.98;;;;;;;-0.46;100.00;93514.91;2105387;28;20085;-84
2022/01/02 03:55:18;;;;;;;2.42;1.88;;;;;;;-0.55;100.00;93505.31;2110253;28;20028;-85
2022/01/02 03:56:21;;;;;;;2.20;1.77;;;;;;;-0.53;100.00;93507.59;2113521;28;20019;-84
2022/01/02 03:57:22;;;;;;;2.20;2.00;;;;;;;-0.51;100.00;93508.78;2104893;28;20111;-83
2022/01/02 03:58:30;;;;;;;2.25;1.95;;;;;;;-0.56;100.00;93506.41;2101278;28;20067;-84
2022/01/02 03:59:31;;;;;;;7.55;1.95;;;;;;;-0.47;100.00;93502.88;2111676;28;20181;-83
2022/01/02 04:00:32;;;;;;;2.45;1.70;;;;;;;-0.56;100.00;93503.78;2113983;28;20050;-86
2022/01/02 04:01:33;;;;;;;3.45;1.85;;;;;;;-0.60;100.00;93500.31;2103676;28;20107;-86
2022/01/02 04:02:38;;;;;;;2.45;2.03;;;;;;;-0.60;100.00;93505.56;2097109;28;20524;-85
2022/01/02 04:03:39;;;;;;;4.65;2.03;;;;;;;-0.57;100.00;93496.22;2091225;28;20021;-85
2022/01/02 04:04:42;;;;;;;1.50;1.40;;;;;;;-0.53;100.00;93497.88;2082170;28;20022;-83
2022/01/02 04:05:47;;;;;;;2.50;1.70;;;;;;;-0.60;100.00;93502.94;2104523;28;20051;-84
2022/01/02 04:06:52;;;;;;;3.20;1.55;;;;;;;-0.61;100.00;93501.41;2117154;27;20027;-84
2022/01/02 04:07:55;;;;;;;2.25;1.88;;;;;;;-0.63;100.00;93500.97;2108983;28;20020;-85
2022/01/02 04:08:57;;;;;;;2.10;1.83;;;;;;;-0.66;100.00;93504.28;2092979;28;20326;-84
2022/01/02 04:10:05;;;;;;;1.85;1.65;;;;;;;-0.65;100.00;93505.03;2084511;28;20041;-85
2022/01/02 04:11:09;;;;;;;3.78;1.83;;;;;;;-0.60;100.00;93507.41;2089984;28;20044;-83
2022/01/02 04:12:11;;;;;;;2.10;1.83;;;;;;;-0.62;100.00;93502.47;2089679;28;20116;-85
2022/01/02 04:13:14;;;;;;;1.90;1.80;;;;;;;-0.67;100.00;93507.22;2091349;28;20083;-84
2022/01/02 04:14:22;;;;;;;1.73;1.52;;;;;;;-0.74;100.00;93499.94;2093867;28;20644;-85
2022/01/02 04:15:29;;;;;;;2.35;1.98;;;;;;;-0.64;100.00;93502.06;2090759;28;20021;-86
2022/01/02 04:16:30;;;;;;;1.65;1.52;;;;;;;-0.65;100.00;93500.56;2097947;28;20443;-84
2022/01/02 04:17:32;;;;;;;3.90;1.83;;;;;;;-0.66;100.00;93498.25;2095551;28;20119;-84
2022/01/02 04:18:33;;;;;;;2.72;1.92;;;;;;;-0.69;100.00;93493.69;2100929;28;20051;-83
2022/01/02 04:19:34;;;;;;;2.50;1.52;;;;;;;-0.72;100.00;93504.84;2098726;28;20481;-85
2022/01/02 04:20:36;;;;;;;2.22;1.92;;;;;;;-0.80;100.00;93498.63;2112591;28;20413;-84
2022/01/02 04:21:38;;;;;;;2.28;1.40;;;;;;;-0.80;100.00;93494.16;2105414;28;20027;-84
2022/01/02 04:22:39;;;;;;;2.60;1.90;;;;;;;-0.85;100.00;93499.63;2092816;28;20115;-83
2022/01/02 04:23:40;;;;;;;1.52;1.42;;;;;;;-0.85;100.00;93491.00;2095621;28;20024;-85
2022/01/02 04:24:41;;;;;;;1.85;1.60;;;;;;;-0.90;100.00;93499.88;2089998;28;20021;-83
2022/01/02 04:25:45;;;;;;;2.00;1.60;;;;;;;-0.86;100.00;93499.97;2092652;28;20102;-83
2022/01/02 04:26:51;;;;;;;1.63;1.50;;;;;;;-0.89;100.00;93492.75;2093083;28;20052;-84
2022/01/02 04:27:57;;;;;;;2.03;1.83;;;;;;;-0.80;100.00;93494.16;2087758;28;20505;-84
2022/01/02 04:28:58;;;;;;;4.07;1.50;;;;;;;-0.73;100.00;93482.31;2098366;28;20497;-83
2022/01/02 04:30:00;;;;;;;2.20;1.50;;;;;;;-0.68;100.00;93490.72;2104976;28;20016;-85
2022/01/02 04:31:03;;;;;;;2.22;1.60;;;;;;;-0.78;100.00;93491.19;2098324;28;20082;-83
2022/01/02 04:32:07;;;;;;;3.03;1.40;;;;;;;-0.78;100.00;93481.47;2087197;28;20062;-84
2022/01/02 04:33:08;;;;;;;3.83;1.25;;;;;;;-0.77;100.00;93482.22;2096195;28;20175;-85
2022/01/02 04:34:09;;;;;;;1.52;1.35;;;;;;;-0.70;100.00;93479.81;2107660;28;20020;-84
2022/01/02 04:35:10;;;;;;;2.95;1.70;;;;;;;-0.73;100.00;93480.47;2100737;28;20028;-84
2022/01/02 04:36:11;;;;;;;2.35;1.40;;;;;;;-0.76;100.00;93479.25;2096801;28;20020;-85
2022/01/02 04:37:13;;;;;;;2.72;1.48;;;;;;;-0.78;100.00;93478.84;2081675;28;20025;-85
2022/01/02 04:38:17;;;;;;;2.28;1.40;;;;;;;-0.83;100.00;93479.09;2093073;28;20029;-86
2022/01/02 04:39:18;;;;;;;2.03;1.30;;;;;;;-0.69;100.00;93472.69;2108712;28;20023;-84
2022/01/02 04:40:19;;;;;;;2.08;1.40;;;;;;;-0.69;100.00;93470.06;2109233;28;20049;-85
2022/01/02 04:41:20;;;;;;;2.63;1.85;;;;;;;-0.76;100.00;93468.00;2092622;28;20031;-85
2022/01/02 04:42:21;;;;;;;2.13;1.40;;;;;;;-0.72;100.00;93470.72;2092408;28;20035;-83
2022/01/02 04:43:22;;;;;;;3.00;1.67;;;;;;;-0.71;100.00;93462.50;2104953;28;20028;-85
2022/01/02 04:44:23;;;;;;;1.30;1.20;;;;;;;-0.72;100.00;93466.22;2104727;28;20028;-85
2022/01/02 04:45:25;;;;;;;1.58;1.48;;;;;;;-0.73;100.00;93472.59;2084762;28;20391;-84
2022/01/02 04:46:26;;;;;;;3.55;1.85;;;;;;;-0.70;100.00;93464.06;2096214;28;20043;-82
2022/01/02 04:47:27;;;;;;;1.90;1.17;;;;;;;-0.72;100.00;93468.09;2093323;28;20078;-85
2022/01/02 04:48:29;;;;;;;1.75;1.65;;;;;;;-0.71;100.00;93459.88;2096467;28;20035;-84
2022/01/02 04:49:30;;;;;;;2.45;1.30;;;;;;;-0.72;100.00;93466.22;2104159;28;20518;-85
2022/01/02 04:50:32;;;;;;;1.58;1.48;;;;;;;-0.75;100.00;93461.66;2110658;28;20500;-84
2022/01/02 04:51:33;;;;;;;1.80;1.70;;;;;;;-0.70;100.00;93458.81;2098274;28;20024;-85
2022/01/02 04:52:34;;;;;;;1.30;1.20;;;;;;;-0.72;100.00;93463.59;2096734;28;20123;-83
2022/01/02 04:53:37;;;;;;;1.38;1.27;;;;;;;-0.72;100.00;93465.47;2096559;28;20067;-85
2022/01/02 04:54:38;;;;;;;2.53;1.30;;;;;;;-0.74;100.00;93457.19;2088990;28;20041;-85
2022/01/02 04:55:40;;;;;;;2.42;1.60;;;;;;;-0.66;100.00;93464.91;2088243;28;20033;-84
2022/01/02 04:56:41;;;;;;;1.77;1.38;;;;;;;-0.68;100.00;93466.34;2088543;28;20021;-86
2022/01/02 04:57:42;;;;;;;1.65;1.38;;;;;;;-0.59;100.00;93461.69;2099487;28;20533;-85
2022/01/02 04:58:43;;;;;;;1.98;1.58;;;;;;;-0.61;100.00;93461.28;2088421;28;20024;-85
2022/01/02 04:59:44;;;;;;;2.72;1.60;;;;;;;-0.65;100.00;93471.69;2093655;28;20024;-85
2022/01/02 05:00:45;;;;;;;1.65;1.55;;;;;;;-0.58;100.00;93465.84;2095907;28;20389;-84
2022/01/02 05:01:46;;;;;;;1.50;1.40;;;;;;;-0.66;100.00;93472.78;2101566;28;20483;-83
2022/01/02 05:02:49;;;;;;;1.85;1.40;;;;;;;-0.61;100.00;93474.41;2103925;28;20504;-83
2022/01/02 05:03:50;;;;;;;1.92;1.73;;;;;;;-0.67;100.00;93473.84;2093020;28;20497;-85
2022/01/02 05:04:51;;;;;;;1.88;1.60;;;;;;;-0.75;100.00;93466.91;2105025;28;20032;-85